Time;durP1;ratioP1;P1;durP2;ratioP2;P2;SDS_P1;SDS_P2;PMS_P1;PMS_P2;Temp;Humidity;BMP_temperature;BMP_pressure;BME280_temperature;BME280_humidity;BME280_pressure;Samples;Min_cycle;Max_cycle;Signal;HPM_P1;HPM_P2
2023/01/11 00:00:21;;;;;;;3.38;0.70;;;8.70;99.90;;;;;;6132011;23;20504;-81
2023/01/11 00:02:47;;;;;;;1.88;0.47;;;8.80;99.90;;;;;;6131488;23;20005;-79
2023/01/11 00:05:13;;;;;;;1.60;0.55;;;8.80;99.90;;;;;;6155967;23;20013;-81
2023/01/11 00:07:39;;;;;;;1.35;0.35;;;8.80;99.90;;;;;;6131731;23;20009;-79
2023/01/11 00:10:08;;;;;;;1.38;0.40;;;8.80;99.90;;;;;;6150781;23;20009;-79
2023/01/11 00:12:33;;;;;;;1.35;0.40;;;8.80;99.90;;;;;;6156256;23;20469;-78
2023/01/11 00:14:59;;;;;;;2.08;0.40;;;8.90;99.90;;;;;;6180049;23;20013;-79
2023/01/11 00:17:27;;;;;;;1.92;0.40;;;8.90;99.90;;;;;;6156033;23;20422;-80
2023/01/11 00:19:52;;;;;;;1.13;0.47;;;9.00;99.90;;;;;;6131145;23;20025;-81
2023/01/11 00:22:19;;;;;;;1.20;0.40;;;9.10;99.90;;;;;;6156179;23;20020;-79
2023/01/11 00:24:45;;;;;;;2.55;0.40;;;9.10;99.90;;;;;;6155503;23;20005;-79
2023/01/11 00:27:10;;;;;;;2.85;0.40;;;9.10;99.90;;;;;;6155699;23;20084;-77
2023/01/11 00:29:36;;;;;;;1.08;0.30;;;9.10;99.90;;;;;;6156253;23;20394;-77
2023/01/11 00:32:01;;;;;;;1.77;0.40;;;9.10;99.90;;;;;;6155539;23;20397;-78
2023/01/11 00:34:27;;;;;;;1.15;0.40;;;9.10;99.90;;;;;;6155808;23;20047;-78
2023/01/11 00:36:53;;;;;;;1.77;0.50;;;9.10;99.90;;;;;;6181681;23;20005;-79
2023/01/11 00:39:18;;;;;;;1.85;0.40;;;9.10;99.90;;;;;;6155519;23;20028;-79
2023/01/11 00:49:59;;;;;;;3.15;0.47;;;9.20;99.90;;;;;;6155637;23;20097;-78
2023/01/11 00:52:24;;;;;;;1.02;0.38;;;9.30;99.90;;;;;;6182314;23;20024;-79
2023/01/11 00:54:50;;;;;;;2.97;0.50;;;9.30;99.90;;;;;;6154563;23;20024;-79
2023/01/11 00:57:16;;;;;;;2.13;0.40;;;9.40;99.90;;;;;;6182045;23;20005;-78
2023/01/11 00:59:42;;;;;;;2.20;0.50;;;9.30;99.90;;;;;;6155923;23;20573;-80
2023/01/11 01:02:09;;;;;;;1.13;0.50;;;9.40;99.90;;;;;;6181663;23;20027;-79
2023/01/11 01:04:34;;;;;;;1.40;0.40;;;9.40;99.90;;;;;;6155795;23;20013;-78
2023/01/11 01:07:00;;;;;;;3.47;0.40;;;9.40;99.90;;;;;;6181486;23;20364;-80
2023/01/11 01:09:26;;;;;;;0.90;0.50;;;9.50;99.90;;;;;;6155282;23;20009;-79
2023/01/11 01:11:52;;;;;;;1.77;0.30;;;9.50;99.90;;;;;;6154589;23;20063;-79
2023/01/11 01:14:29;;;;;;;2.08;0.30;;;9.40;99.90;;;;;;6155308;23;20024;-78
2023/01/11 01:17:06;;;;;;;0.90;0.40;;;9.40;99.90;;;;;;6181421;23;20132;-78
2023/01/11 01:19:32;;;;;;;0.93;0.30;;;9.50;99.90;;;;;;6155561;23;20017;-79
2023/01/11 01:21:59;;;;;;;1.42;0.28;;;9.40;99.90;;;;;;6155298;23;20461;-78
2023/01/11 01:24:29;;;;;;;3.28;0.40;;;9.50;99.90;;;;;;6154808;23;20013;-79
2023/01/11 01:26:56;;;;;;;1.10;0.40;;;9.50;99.90;;;;;;6179792;23;20382;-79
2023/01/11 01:29:23;;;;;;;0.75;0.30;;;9.40;99.90;;;;;;6182000;23;20072;-79
2023/01/11 01:31:48;;;;;;;1.75;0.20;;;9.50;99.90;;;;;;6181377;23;20032;-78
2023/01/11 01:34:14;;;;;;;1.50;0.32;;;9.50;99.90;;;;;;6181326;23;20016;-81
2023/01/11 01:36:41;;;;;;;1.35;0.32;;;9.50;99.90;;;;;;6130709;23;20080;-79
2023/01/11 01:39:09;;;;;;;1.75;0.40;;;9.50;99.90;;;;;;6154732;23;20075;-79
2023/01/11 01:41:35;;;;;;;1.23;0.30;;;9.50;99.90;;;;;;6179631;23;20002;-79
2023/01/11 01:44:03;;;;;;;1.10;0.30;;;9.50;99.90;;;;;;6181303;23;20028;-78
2023/01/11 01:46:32;;;;;;;1.35;0.40;;;9.60;99.90;;;;;;6155281;23;20009;-79
2023/01/11 01:49:07;;;;;;;1.00;0.30;;;9.60;99.90;;;;;;6180923;23;20005;-78
2023/01/11 01:51:43;;;;;;;1.02;0.40;;;9.60;99.90;;;;;;6154504;23;20031;-79
2023/01/11 01:54:13;;;;;;;1.27;0.30;;;9.60;99.90;;;;;;6159712;23;20074;-78
2023/01/11 01:56:43;;;;;;;;;;;9.60;99.90;;;;;;6211890;23;20083;-78
2023/01/11 01:59:11;;;;;;;;;;;9.60;99.90;;;;;;6184484;23;20360;-79
2023/01/11 02:01:47;;;;;;;0.95;0.30;;;9.60;99.90;;;;;;6209658;23;19915;-78
2023/01/11 02:04:24;;;;;;;0.82;0.30;;;9.70;99.90;;;;;;6184664;23;20015;-78
2023/01/11 02:06:55;;;;;;;0.70;0.30;;;9.70;99.90;;;;;;6184003;23;20087;-78
2023/01/11 02:09:27;;;;;;;2.75;0.40;;;9.70;99.90;;;;;;6211170;23;20583;-79
2023/01/11 02:11:55;;;;;;;1.45;0.40;;;9.70;99.90;;;;;;6159245;23;20004;-79
2023/01/11 02:14:22;;;;;;;0.75;0.30;;;9.70;99.90;;;;;;6210456;23;20016;-79
2023/01/11 02:16:47;;;;;;;1.17;0.40;;;9.70;99.90;;;;;;6211185;23;20071;-78
2023/01/11 02:19:47;;;;;;;1.25;0.40;;;9.70;99.90;;;;;;6184256;23;20449;-78
2023/01/11 02:22:52;;;;;;;1.60;0.40;;;9.80;99.90;;;;;;6209047;23;20011;-79
2023/01/11 02:25:44;;;;;;;1.55;0.55;;;9.80;99.90;;;;;;6209677;23;20020;-78
2023/01/11 02:28:34;;;;;;;1.25;0.50;;;9.80;99.90;;;;;;6159028;23;20334;-78
2023/01/11 02:31:03;;;;;;;;;;;9.90;99.90;;;;;;6209633;23;20009;-78
2023/01/11 02:33:40;;;;;;;0.80;0.38;;;9.90;99.90;;;;;;6159545;23;19908;-79
2023/01/11 02:36:15;;;;;;;1.15;0.20;;;9.90;99.90;;;;;;6208669;23;20016;-78
2023/01/11 02:38:51;;;;;;;0.60;0.30;;;9.90;99.90;;;;;;6209493;23;20327;-78
2023/01/11 02:45:00;;;;;;;0.65;0.30;;;9.90;99.90;;;;;;6159551;23;20012;-78
2023/01/11 02:47:17;;;;;;;0.90;0.20;;;9.90;99.90;;;;;;6184077;23;20416;-79
2023/01/11 02:50:01;;;;;;;0.45;0.20;;;9.90;99.90;;;;;;6183736;23;20019;-78
2023/01/11 02:52:37;;;;;;;1.13;0.30;;;9.90;99.90;;;;;;6184396;23;20144;-78
2023/01/11 02:55:07;;;;;;;1.45;0.65;;;10.00;99.90;;;;;;6178637;23;20019;-78
2023/01/11 02:57:34;;;;;;;0.60;0.20;;;9.90;99.90;;;;;;6154256;23;20013;-78
2023/01/11 03:00:01;;;;;;;0.93;0.35;;;9.90;99.90;;;;;;6129634;23;20013;-78
2023/01/11 03:02:26;;;;;;;0.60;0.20;;;10.00;99.90;;;;;;6180895;23;20087;-78
2023/01/11 03:04:52;;;;;;;0.55;0.20;;;10.00;99.90;;;;;;6153634;23;20055;-78
2023/01/11 03:07:39;;;;;;;0.93;0.30;;;10.00;99.90;;;;;;6179079;23;20005;-79
2023/01/11 03:10:24;;;;;;;0.90;0.30;;;10.00;99.90;;;;;;6129554;23;20012;-79
2023/01/11 03:13:26;;;;;;;0.75;0.30;;;10.00;99.90;;;;;;6129588;23;20010;-78
2023/01/11 03:16:26;;;;;;;0.60;0.30;;;10.00;99.90;;;;;;6154021;23;20179;-78
2023/01/11 03:18:57;;;;;;;1.65;0.20;;;10.00;99.90;;;;;;6153259;23;20016;-79
2023/01/11 03:21:48;;;;;;;0.63;0.30;;;10.00;99.90;;;;;;6129732;23;20013;-78
2023/01/11 03:24:32;;;;;;;0.60;0.30;;;10.10;99.90;;;;;;6154413;23;20056;-78
2023/01/11 03:27:06;;;;;;;2.10;0.50;;;10.00;99.90;;;;;;6129470;23;20015;-78
2023/01/11 03:29:35;;;;;;;0.90;0.50;;;10.10;99.90;;;;;;6154611;23;20197;-79
2023/01/11 03:32:20;;;;;;;1.52;0.50;;;10.10;99.90;;;;;;6153991;23;20040;-79
2023/01/11 03:34:54;;;;;;;1.00;0.50;;;10.10;99.90;;;;;;6129198;23;20064;-79
2023/01/11 03:37:31;;;;;;;1.00;0.50;;;10.10;99.90;;;;;;6129615;23;20009;-79
2023/01/11 03:40:08;;;;;;;1.20;0.50;;;10.10;99.90;;;;;;6129576;23;20311;-79
2023/01/11 03:43:09;;;;;;;0.90;0.50;;;10.10;99.90;;;;;;6154044;23;20501;-79
2023/01/11 03:45:25;;;;;;;0.90;0.50;;;10.10;99.90;;;;;;6178868;23;20044;-79
2023/01/11 03:47:52;;;;;;;1.38;0.70;;;10.10;99.90;;;;;;6153698;23;20441;-78
2023/01/11 03:50:18;;;;;;;1.20;0.70;;;10.20;99.90;;;;;;6154238;23;20009;-79
2023/01/11 03:52:45;;;;;;;1.70;1.17;;;10.20;99.90;;;;;;6154165;23;20346;-79
2023/01/11 03:55:15;;;;;;;1.50;0.90;;;10.20;99.90;;;;;;6158564;23;20024;-79
2023/01/11 03:57:50;;;;;;;1.27;0.45;;;10.20;99.90;;;;;;6184402;23;20048;-79
2023/01/11 04:00:19;;;;;;;1.25;0.40;;;10.20;99.90;;;;;;6183965;23;20004;-79
2023/01/11 04:02:46;;;;;;;0.60;0.30;;;10.20;99.90;;;;;;6208271;23;20088;-79
2023/01/11 04:05:11;;;;;;;0.80;0.20;;;10.20;99.90;;;;;;6183649;23;20024;-78
2023/01/11 04:07:37;;;;;;;0.70;0.30;;;10.20;99.90;;;;;;6183945;23;20008;-79
2023/01/11 04:10:04;;;;;;;0.40;0.20;;;10.20;99.90;;;;;;6208315;23;20083;-79
2023/01/11 04:12:29;;;;;;;0.30;0.20;;;10.20;99.90;;;;;;6211750;23;20013;-79
2023/01/11 04:14:55;;;;;;;0.82;0.57;;;10.20;99.90;;;;;;6184796;23;20024;-78
2023/01/11 04:17:21;;;;;;;0.47;0.20;;;10.20;99.90;;;;;;6160462;23;20012;-78
2023/01/11 04:19:47;;;;;;;0.30;0.13;;;10.30;99.90;;;;;;6211920;23;20012;-78
2023/01/11 04:22:13;;;;;;;0.30;0.13;;;10.20;99.90;;;;;;6185249;23;20013;-78
2023/01/11 04:24:38;;;;;;;0.32;0.10;;;10.30;99.90;;;;;;6185691;23;20384;-79
2023/01/11 04:27:04;;;;;;;0.63;0.20;;;10.20;99.90;;;;;;6185424;23;20008;-78
2023/01/11 04:29:30;;;;;;;0.32;0.10;;;10.30;99.90;;;;;;6160650;23;20009;-78
2023/01/11 04:31:56;;;;;;;0.15;0.00;;;10.30;99.90;;;;;;6211593;23;20085;-78
2023/01/11 04:34:22;;;;;;;0.10;0.00;;;10.30;99.90;;;;;;6160377;23;20008;-79
2023/01/11 04:36:47;;;;;;;0.30;0.10;;;10.30;99.90;;;;;;6185364;23;20100;-79
2023/01/11 04:39:13;;;;;;;0.60;0.20;;;10.30;99.90;;;;;;6185406;23;20095;-78
2023/01/11 04:44:23;;;;;;;0.75;0.30;;;10.40;99.90;;;;;;6185224;23;20019;-79
2023/01/11 04:46:49;;;;;;;0.65;0.28;;;10.40;99.90;;;;;;6209928;23;20060;-80
2023/01/11 04:49:15;;;;;;;0.57;0.28;;;10.40;99.90;;;;;;6211834;23;20004;-79
2023/01/11 04:51:41;;;;;;;0.70;0.30;;;10.40;99.90;;;;;;6211908;23;20034;-79
2023/01/11 04:54:07;;;;;;;0.75;0.20;;;10.40;99.90;;;;;;6159821;23;20009;-79
2023/01/11 04:56:33;;;;;;;0.93;0.40;;;10.40;99.90;;;;;;6185468;23;20027;-79
2023/01/11 04:58:59;;;;;;;0.80;0.30;;;10.40;99.90;;;;;;6184833;23;20017;-79
2023/01/11 05:01:25;;;;;;;0.68;0.20;;;10.40;99.90;;;;;;6211314;23;20040;-79
2023/01/11 05:03:50;;;;;;;0.65;0.30;;;10.30;99.90;;;;;;6211461;23;20445;-79
2023/01/11 05:06:21;;;;;;;0.35;0.20;;;10.40;99.90;;;;;;6185096;23;20377;-80
2023/01/11 05:08:47;;;;;;;0.73;0.30;;;10.40;99.90;;;;;;6211687;23;20031;-80
2023/01/11 05:11:14;;;;;;;0.57;0.20;;;10.40;99.90;;;;;;6210122;23;20099;-79
2023/01/11 05:13:40;;;;;;;0.52;0.20;;;10.40;99.90;;;;;;6184777;23;20032;-80
2023/01/11 05:16:11;;;;;;;0.88;0.40;;;10.40;99.90;;;;;;6184742;23;20001;-80
2023/01/11 05:18:41;;;;;;;1.52;0.30;;;10.40;99.90;;;;;;6185061;23;20021;-80
2023/01/11 05:21:09;;;;;;;0.77;0.30;;;10.40;99.90;;;;;;6184609;23;20931;-79
2023/01/11 05:23:36;;;;;;;1.10;0.40;;;10.40;99.90;;;;;;6184874;23;20063;-80
2023/01/11 05:26:23;;;;;;;1.10;0.30;;;10.40;99.90;;;;;;6159728;23;20013;-79
2023/01/11 05:28:50;;;;;;;0.47;0.20;;;10.40;99.90;;;;;;6209670;23;20314;-79
2023/01/11 05:31:16;;;;;;;1.15;0.30;;;10.40;99.90;;;;;;6159642;23;20432;-79
2023/01/11 05:33:43;;;;;;;0.85;0.30;;;10.50;99.90;;;;;;6160157;23;20115;-80
2023/01/11 05:36:12;;;;;;;0.50;0.20;;;10.50;99.90;;;;;;6209847;23;20012;-80
2023/01/11 05:38:38;;;;;;;0.93;0.20;;;10.50;99.90;;;;;;6211450;23;20453;-80
2023/01/11 05:41:07;;;;;;;0.90;0.30;;;10.50;99.90;;;;;;6183621;23;20004;-79
2023/01/11 05:45:27;;;;;;;0.40;0.20;;;10.60;99.90;;;;;;6184286;23;20067;-79
2023/01/11 05:46:19;;;;;;;0.30;0.20;;;10.60;99.90;;;;;;6184742;23;20020;-79
2023/01/11 05:48:44;;;;;;;0.47;0.10;;;10.70;99.90;;;;;;6211221;23;20337;-79
2023/01/11 05:51:10;;;;;;;0.30;0.10;;;10.70;99.90;;;;;;6183955;23;20323;-79
2023/01/11 05:53:35;;;;;;;1.42;0.20;;;10.70;99.90;;;;;;6184720;23;20011;-79
2023/01/11 05:56:01;;;;;;;0.68;0.20;;;10.70;99.90;;;;;;6154272;23;20092;-78
2023/01/11 05:58:27;;;;;;;2.30;0.55;;;10.70;99.90;;;;;;6153174;23;20354;-79
2023/01/11 06:00:54;;;;;;;2.83;0.80;;;10.70;99.90;;;;;;6154423;23;20005;-79
2023/01/11 06:03:22;;;;;;;2.25;0.70;;;10.80;99.90;;;;;;6155412;23;20005;-79
2023/01/11 06:05:48;;;;;;;1.70;0.63;;;10.80;99.90;;;;;;6154502;23;20009;-79
2023/01/11 06:08:14;;;;;;;3.05;0.80;;;10.80;99.90;;;;;;6154794;23;20009;-79
2023/01/11 06:10:39;;;;;;;3.40;0.80;;;10.90;99.90;;;;;;6180810;23;20009;-79
2023/01/11 06:15:49;;;;;;;5.70;1.75;;;10.80;99.90;;;;;;6177859;23;20013;-78
2023/01/11 06:18:15;;;;;;;7.43;2.15;;;10.90;99.90;;;;;;6179252;23;20356;-79
2023/01/11 06:20:41;;;;;;;4.18;1.17;;;10.80;99.90;;;;;;6129558;23;20009;-79
2023/01/11 06:23:07;;;;;;;5.97;1.35;;;10.90;99.90;;;;;;6180553;23;20005;-79
2023/01/11 06:25:36;;;;;;;7.65;1.75;;;10.80;99.90;;;;;;6154447;23;20005;-79
2023/01/11 06:28:05;;;;;;;4.45;1.02;;;10.80;99.90;;;;;;6153709;23;20048;-79
2023/01/11 06:30:30;;;;;;;3.58;1.25;;;10.80;99.90;;;;;;6180483;23;20009;-79
2023/01/11 06:33:04;;;;;;;6.22;1.00;;;10.70;99.90;;;;;;6153991;23;20092;-80
2023/01/11 06:35:38;;;;;;;4.25;0.80;;;10.70;99.90;;;;;;6180863;23;20036;-79
2023/01/11 06:38:05;;;;;;;9.32;0.98;;;10.60;99.90;;;;;;6153840;23;20059;-79
2023/01/11 06:40:30;;;;;;;9.02;0.60;;;10.60;99.90;;;;;;6154103;23;20083;-79
2023/01/11 06:42:56;;;;;;;8.73;0.90;;;10.60;99.90;;;;;;6129388;23;20382;-80
2023/01/11 06:45:22;;;;;;;7.70;0.80;;;10.60;99.90;;;;;;6153561;23;20065;-79
2023/01/11 06:47:47;;;;;;;10.57;0.60;;;10.50;99.90;;;;;;6178428;23;20020;-79
2023/01/11 06:50:14;;;;;;;5.43;0.50;;;10.50;99.90;;;;;;6154056;23;20016;-79
2023/01/11 06:52:39;;;;;;;7.75;0.50;;;10.50;99.90;;;;;;6154561;23;20048;-79
2023/01/11 06:55:05;;;;;;;11.57;0.77;;;10.50;99.90;;;;;;6154392;23;20017;-79
2023/01/11 06:57:32;;;;;;;8.50;1.08;;;10.50;99.90;;;;;;6177805;23;20044;-80
2023/01/11 06:59:58;;;;;;;8.55;0.57;;;10.50;99.90;;;;;;6154274;23;20140;-79
2023/01/11 07:02:24;;;;;;;11.40;0.80;;;10.50;99.90;;;;;;6154222;23;20040;-79
2023/01/11 07:04:49;;;;;;;5.75;0.60;;;10.50;99.90;;;;;;6178860;23;20029;-79
2023/01/11 07:07:15;;;;;;;13.73;1.17;;;10.50;99.90;;;;;;6154051;23;19997;-79
2023/01/11 07:09:41;;;;;;;7.05;0.60;;;10.40;99.90;;;;;;6181070;23;20005;-80
2023/01/11 07:12:07;;;;;;;11.20;0.70;;;10.50;99.90;;;;;;6176460;23;20062;-79
2023/01/11 07:14:32;;;;;;;8.05;0.80;;;10.40;99.90;;;;;;6154535;23;20016;-79
2023/01/11 07:16:58;;;;;;;13.68;0.70;;;10.40;99.90;;;;;;6180761;23;20430;-80
2023/01/11 07:19:24;;;;;;;15.55;2.03;;;10.40;99.90;;;;;;6179288;23;20103;-82
2023/01/11 07:21:49;;;;;;;12.60;1.15;;;10.40;99.90;;;;;;6178629;23;20005;-78
2023/01/11 07:24:15;;;;;;;12.18;1.60;;;10.40;99.90;;;;;;6180468;23;20017;-78
2023/01/11 07:26:41;;;;;;;9.32;1.70;;;10.40;99.90;;;;;;6153056;23;20060;-79
2023/01/11 07:29:07;;;;;;;6.60;1.25;;;10.50;99.90;;;;;;6179950;23;20033;-79
2023/01/11 07:31:32;;;;;;;10.85;1.10;;;10.40;99.90;;;;;;6153161;23;20001;-78
2023/01/11 07:33:58;;;;;;;12.43;1.20;;;10.40;99.90;;;;;;6154171;23;20043;-78
2023/01/11 07:36:24;;;;;;;10.55;0.80;;;10.30;99.90;;;;;;6180320;23;20349;-78
2023/01/11 07:38:50;;;;;;;13.52;1.08;;;10.30;99.90;;;;;;6178490;23;20041;-79
2023/01/11 07:44:01;;;;;;;17.88;1.00;;;10.20;99.90;;;;;;6178445;23;20420;-78
2023/01/11 07:46:27;;;;;;;9.68;1.00;;;10.20;99.90;;;;;;6181678;23;20005;-79
2023/01/11 07:48:53;;;;;;;12.85;0.90;;;10.20;99.90;;;;;;6182398;23;20012;-78
2023/01/11 07:51:22;;;;;;;9.52;0.75;;;10.10;99.90;;;;;;6182448;23;20005;-79
2023/01/11 07:53:49;;;;;;;13.93;1.05;;;10.10;99.90;;;;;;6180467;23;20438;-78
2023/01/11 07:56:14;;;;;;;11.48;0.73;;;10.10;99.90;;;;;;6172919;23;20096;-78
2023/01/11 07:58:40;;;;;;;16.38;1.15;;;10.10;99.90;;;;;;6156059;23;20040;-78
2023/01/11 08:01:06;;;;;;;11.57;0.95;;;10.00;99.90;;;;;;6155931;23;20009;-79
2023/01/11 08:03:31;;;;;;;11.95;0.73;;;10.00;99.90;;;;;;6131311;23;20104;-79
2023/01/11 08:05:57;;;;;;;10.43;0.80;;;10.00;99.90;;;;;;6131135;23;20024;-79
2023/01/11 08:08:23;;;;;;;15.02;0.70;;;10.00;99.90;;;;;;6130786;23;20142;-79
2023/01/11 08:14:37;;;;;;;12.00;0.73;;;9.90;99.90;;;;;;6130542;23;20001;-79
2023/01/11 08:16:18;;;;;;;14.32;0.80;;;9.90;99.90;;;;;;6156030;23;20011;-79
2023/01/11 08:18:44;;;;;;;14.57;1.17;;;9.80;99.90;;;;;;6181533;23;20095;-79
2023/01/11 08:21:10;;;;;;;8.13;0.52;;;9.80;99.90;;;;;;6129963;23;20013;-78
2023/01/11 08:23:35;;;;;;;10.45;0.60;;;9.80;99.90;;;;;;6154932;23;20430;-79
2023/01/11 08:26:01;;;;;;;13.27;0.88;;;9.70;99.90;;;;;;6155307;23;20005;-79
2023/01/11 08:28:27;;;;;;;10.85;0.70;;;9.70;99.90;;;;;;6154847;23;20021;-79
2023/01/11 08:30:52;;;;;;;16.08;1.20;;;9.70;99.90;;;;;;6155410;23;20016;-79
2023/01/11 08:33:18;;;;;;;11.70;1.00;;;9.70;99.90;;;;;;6180241;23;20378;-79
2023/01/11 08:35:44;;;;;;;12.63;0.70;;;9.70;99.90;;;;;;6154777;23;20032;-79
2023/01/11 08:38:10;;;;;;;14.40;1.35;;;9.60;99.90;;;;;;6154301;23;20017;-79
2023/01/11 08:40:36;;;;;;;15.05;0.82;;;9.60;99.90;;;;;;6155040;23;20422;-79
2023/01/11 08:43:02;;;;;;;7.55;0.60;;;9.70;99.90;;;;;;6130054;23;20009;-78
2023/01/11 08:45:27;;;;;;;16.13;1.00;;;9.60;99.90;;;;;;6181547;23;20009;-79
2023/01/11 08:47:54;;;;;;;15.57;0.60;;;9.60;99.90;;;;;;6181205;23;20001;-80
2023/01/11 08:50:20;;;;;;;16.67;0.93;;;9.60;99.90;;;;;;6181478;23;20013;-79
2023/01/11 08:52:46;;;;;;;12.07;0.90;;;9.50;99.90;;;;;;6179639;23;20176;-80
2023/01/11 08:55:12;;;;;;;11.43;0.75;;;9.60;99.90;;;;;;6190333;23;20144;-79
2023/01/11 08:57:38;;;;;;;13.40;1.00;;;9.50;99.90;;;;;;6159645;23;20001;-80
2023/01/11 09:00:05;;;;;;;14.02;1.50;;;9.60;99.90;;;;;;6184255;23;20008;-79
2023/01/11 09:02:32;;;;;;;16.23;1.30;;;9.60;99.90;;;;;;6185283;23;20080;-79
2023/01/11 09:04:57;;;;;;;13.00;0.73;;;9.60;99.90;;;;;;6211431;23;20071;-80
2023/01/11 09:07:23;;;;;;;10.52;1.58;;;9.60;99.90;;;;;;6211100;23;20083;-79
2023/01/11 09:09:49;;;;;;;14.32;1.30;;;9.60;99.90;;;;;;6184620;23;20815;-79
2023/01/11 09:12:15;;;;;;;14.70;1.23;;;9.60;99.90;;;;;;6184557;23;20005;-81
2023/01/11 09:14:41;;;;;;;16.08;0.70;;;9.60;99.90;;;;;;6184396;23;20425;-80
2023/01/11 09:17:07;;;;;;;13.10;1.45;;;9.60;99.90;;;;;;6209401;23;20028;-80
2023/01/11 09:19:33;;;;;;;18.15;1.35;;;9.60;99.90;;;;;;6159911;23;20043;-79
2023/01/11 09:22:01;;;;;;;8.80;0.90;;;9.60;99.90;;;;;;6209122;23;20314;-80
2023/01/11 09:24:28;;;;;;;16.23;0.80;;;9.60;99.90;;;;;;6185045;23;20008;-80
2023/01/11 09:26:57;;;;;;;16.10;0.77;;;9.60;99.90;;;;;;6184610;23;20063;-80
2023/01/11 09:29:23;;;;;;;10.90;0.60;;;9.60;99.90;;;;;;6184576;23;20086;-81
2023/01/11 09:31:48;;;;;;;14.88;0.70;;;9.60;99.90;;;;;;6184193;23;20613;-80
2023/01/11 09:34:14;;;;;;;11.43;0.50;;;9.50;99.90;;;;;;6159581;23;20095;-80
2023/01/11 09:36:41;;;;;;;13.60;0.77;;;9.60;99.90;;;;;;6211196;23;20086;-81
2023/01/11 09:39:11;;;;;;;12.20;0.70;;;9.50;99.90;;;;;;6184010;23;20031;-81
2023/01/11 09:42:04;;;;;;;6.30;0.60;;;9.50;99.90;;;;;;6184842;23;20008;-80
2023/01/11 09:44:31;;;;;;;13.05;0.75;;;9.50;99.90;;;;;;6184669;23;20032;-80
2023/01/11 09:47:21;;;;;;;15.18;1.20;;;9.50;99.90;;;;;;6159379;23;20016;-79
2023/01/11 09:49:54;;;;;;;12.20;0.70;;;9.40;99.90;;;;;;6155303;23;20378;-80
2023/01/11 09:52:27;;;;;;;11.88;1.02;;;9.30;99.90;;;;;;6208982;23;20393;-80
2023/01/11 09:54:55;;;;;;;20.00;0.90;;;9.30;99.90;;;;;;6209001;23;20023;-80
2023/01/11 09:57:22;;;;;;;17.40;1.90;;;9.20;99.90;;;;;;6184511;23;20086;-80
2023/01/11 10:00:00;;;;;;;17.13;0.90;;;9.20;99.90;;;;;;6183268;23;20433;-80
2023/01/11 10:02:58;;;;;;;16.23;1.00;;;9.10;99.90;;;;;;6184276;23;20001;-79
2023/01/11 10:05:36;;;;;;;19.38;0.88;;;9.00;99.90;;;;;;6183760;23;20111;-80
2023/01/11 10:08:14;;;;;;;14.40;1.15;;;8.90;99.90;;;;;;6208472;23;20012;-79
2023/01/11 10:10:47;;;;;;;19.15;1.27;;;9.00;99.90;;;;;;6210587;23;20009;-79
2023/01/11 10:13:21;;;;;;;14.52;1.30;;;9.00;99.90;;;;;;6159887;23;20011;-79
2023/01/11 10:15:59;;;;;;;13.20;0.85;;;9.00;99.90;;;;;;6208838;23;20018;-79
2023/01/11 10:18:50;;;;;;;15.13;0.98;;;9.10;99.90;;;;;;6209293;23;20047;-79
2023/01/11 10:21:34;;;;;;;12.85;0.82;;;9.00;99.90;;;;;;6158371;23;20048;-79
2023/01/11 10:24:22;;;;;;;15.50;0.80;;;9.10;99.90;;;;;;6210184;23;20438;-79
2023/01/11 10:26:50;;;;;;;13.98;0.70;;;9.00;99.90;;;;;;6183529;23;20004;-79
2023/01/11 10:29:52;;;;;;;16.20;1.98;;;9.10;99.90;;;;;;6183736;23;20540;-79
2023/01/11 10:32:41;;;;;;;14.73;0.95;;;9.10;99.90;;;;;;6183875;23;20031;-79
2023/01/11 10:35:36;;;;;;;11.18;0.75;;;9.30;99.90;;;;;;6183272;23;20004;-80
2023/01/11 10:38:39;;;;;;;13.93;1.48;;;9.30;99.90;;;;;;6183799;23;20012;-80
2023/01/11 10:41:47;;;;;;;14.02;1.33;;;9.40;99.90;;;;;;6208560;23;20071;-80
2023/01/11 10:44:33;;;;;;;18.23;1.38;;;9.50;99.90;;;;;;6159384;23;20362;-79
2023/01/11 10:47:01;;;;;;;12.73;1.05;;;9.50;99.90;;;;;;6210222;23;20016;-79
2023/01/11 10:49:30;;;;;;;14.07;0.93;;;9.60;99.90;;;;;;6208401;23;20013;-80
2023/01/11 10:52:04;;;;;;;17.63;1.42;;;9.60;99.90;;;;;;6183411;23;20509;-78
2023/01/11 10:54:34;;;;;;;19.33;1.60;;;9.70;99.90;;;;;;6183586;23;20001;-79
2023/01/11 10:57:10;;;;;;;17.67;1.55;;;9.60;99.90;;;;;;6158634;23;20008;-78
2023/01/11 10:59:45;;;;;;;16.40;1.35;;;9.60;99.90;;;;;;6208902;23;20016;-79
2023/01/11 11:02:26;;;;;;;11.02;0.57;;;9.70;99.90;;;;;;6158598;23;20337;-79
2023/01/11 11:04:57;;;;;;;14.07;0.73;;;9.70;99.90;;;;;;6210152;23;20483;-79
2023/01/11 11:07:52;;;;;;;18.30;0.70;;;9.70;99.90;;;;;;6159166;23;20020;-78
2023/01/11 11:10:36;;;;;;;12.77;0.88;;;9.70;99.90;;;;;;6171957;23;20382;-80
2023/01/11 11:13:25;;;;;;;13.43;0.90;;;9.80;99.90;;;;;;6183321;23;20317;-78
2023/01/11 11:16:11;;;;;;;11.40;0.60;;;9.90;99.90;;;;;;6182920;23;20004;-79
2023/01/11 11:18:38;;;;;;;7.93;0.50;;;10.00;99.90;;;;;;6182737;23;20021;-78
2023/01/11 11:21:15;;;;;;;17.70;1.13;;;10.10;99.90;;;;;;6208175;23;20004;-79
2023/01/11 11:23:41;;;;;;;16.10;1.45;;;10.20;99.90;;;;;;6210345;23;20004;-79
2023/01/11 11:26:08;;;;;;;12.88;1.20;;;10.10;99.90;;;;;;6183108;23;20516;-78
2023/01/11 11:28:35;;;;;;;16.67;0.60;;;10.10;99.90;;;;;;6183604;23;20015;-78
2023/01/11 11:31:04;;;;;;;15.05;0.93;;;10.10;99.90;;;;;;6183200;23;20461;-78
2023/01/11 11:33:34;;;;;;;10.18;0.90;;;10.10;99.90;;;;;;6209694;23;20009;-79
2023/01/11 11:36:04;;;;;;;;;;;10.20;99.90;;;;;;6183836;23;20001;-80
2023/01/11 11:38:33;;;;;;;15.85;1.00;;;10.20;99.90;;;;;;6208363;23;19994;-79
2023/01/11 11:41:10;;;;;;;16.27;1.15;;;10.10;99.90;;;;;;6208326;23;20017;-79
2023/01/11 11:43:37;;;;;;;11.48;0.70;;;10.20;99.90;;;;;;6184123;23;20013;-79
2023/01/11 11:46:18;;;;;;;10.82;0.60;;;10.20;99.90;;;;;;6182913;23;20057;-79
2023/01/11 11:49:04;;;;;;;13.13;1.10;;;10.20;99.90;;;;;;6183261;23;20099;-79
2023/01/11 11:51:30;;;;;;;12.93;0.82;;;10.20;99.90;;;;;;6158195;23;20091;-80
2023/01/11 11:53:56;;;;;;;15.70;0.85;;;10.20;99.90;;;;;;6207733;23;20020;-79
2023/01/11 11:56:40;;;;;;;9.38;0.70;;;10.20;99.90;;;;;;6210290;23;20457;-80
2023/01/11 11:59:11;;;;;;;12.10;1.17;;;10.20;99.90;;;;;;6183449;23;20064;-80
2023/01/11 12:01:42;;;;;;;17.55;1.30;;;10.30;99.90;;;;;;6183238;23;20009;-80
2023/01/11 12:04:33;;;;;;;16.08;0.77;;;10.40;99.90;;;;;;6158302;23;20012;-79
2023/01/11 12:07:19;;;;;;;15.68;0.68;;;10.30;99.90;;;;;;6158442;23;20414;-79
2023/01/11 12:10:05;;;;;;;11.80;0.75;;;10.30;99.90;;;;;;6183378;23;20004;-81
2023/01/11 12:12:33;;;;;;;11.90;0.85;;;10.20;99.90;;;;;;6183424;23;20012;-80
2023/01/11 12:15:13;;;;;;;14.98;1.08;;;10.10;99.90;;;;;;6182193;23;20008;-81
2023/01/11 12:17:40;;;;;;;15.48;0.80;;;9.90;99.90;;;;;;6158246;23;20330;-80
2023/01/11 12:20:21;;;;;;;10.85;0.50;;;10.00;99.90;;;;;;6183351;23;20020;-79
2023/01/11 12:22:47;;;;;;;14.43;0.75;;;10.10;99.90;;;;;;6208950;23;20000;-80
2023/01/11 12:25:20;;;;;;;18.48;0.93;;;10.20;99.90;;;;;;6183717;23;20004;-82
2023/01/11 12:28:27;;;;;;;17.65;1.60;;;10.20;99.90;;;;;;6209996;23;20016;-79
2023/01/11 12:31:30;;;;;;;14.77;0.90;;;10.20;99.90;;;;;;6146365;23;20116;-80
2023/01/11 12:34:21;;;;;;;10.63;1.10;;;10.30;99.90;;;;;;6123965;23;20017;-79
2023/01/11 12:37:05;;;;;;;10.75;0.80;;;10.30;99.90;;;;;;6149342;23;20020;-79
2023/01/11 12:39:44;;;;;;;10.65;1.27;;;10.30;99.90;;;;;;6124220;23;20032;-80
2023/01/11 12:42:33;;;;;;;9.57;0.87;;;10.30;99.90;;;;;;6148755;23;20511;-80
2023/01/11 12:45:24;;;;;;;12.68;1.20;;;10.50;99.90;;;;;;6137804;23;20148;-81
2023/01/11 12:47:53;;;;;;;12.63;0.70;;;10.40;99.90;;;;;;6148407;23;20009;-81
2023/01/11 12:50:32;;;;;;;16.02;1.65;;;10.30;99.90;;;;;;6148623;23;20013;-81
2023/01/11 12:53:35;;;;;;;8.98;0.80;;;10.30;99.90;;;;;;6122983;23;20478;-80
2023/01/11 12:56:32;;;;;;;8.95;0.80;;;10.30;99.90;;;;;;6148422;23;20057;-81
2023/01/11 12:59:01;;;;;;;13.77;0.88;;;10.20;99.90;;;;;;6147739;23;20014;-80
2023/01/11 13:01:35;;;;;;;15.33;0.90;;;10.00;99.90;;;;;;6148391;23;20423;-81
2023/01/11 13:04:04;;;;;;;11.27;1.02;;;10.00;99.90;;;;;;6124099;23;20275;-79
2023/01/11 13:06:35;;;;;;;14.65;0.98;;;9.90;99.90;;;;;;6157999;23;20500;-80
2023/01/11 13:09:16;;;;;;;15.35;0.70;;;10.00;99.90;;;;;;6211751;23;20008;-81
2023/01/11 13:11:48;;;;;;;20.52;1.17;;;10.00;99.90;;;;;;6211501;23;20035;-81
2023/01/11 13:14:56;;;;;;;9.98;0.60;;;10.00;99.90;;;;;;6184325;23;20008;-81
2023/01/11 13:17:41;;;;;;;11.27;0.73;;;10.00;99.90;;;;;;6180396;23;20430;-81
2023/01/11 13:20:24;;;;;;;14.65;0.80;;;10.00;99.90;;;;;;6211130;23;20112;-81
2023/01/11 13:23:01;;;;;;;14.95;0.65;;;9.90;99.90;;;;;;6184363;23;20011;-81
2023/01/11 13:25:31;;;;;;;12.20;0.60;;;9.90;99.90;;;;;;6211541;23;20004;-80
2023/01/11 13:28:00;;;;;;;11.95;1.13;;;9.80;99.90;;;;;;6210931;23;20008;-81
2023/01/11 13:30:26;;;;;;;10.17;0.80;;;9.90;99.90;;;;;;6185121;23;20035;-81
2023/01/11 13:33:01;;;;;;;11.93;0.90;;;10.00;99.90;;;;;;6210876;23;20000;-82